sensor_id;sensor_type;location;lat;lon;timestamp;P1;durP1;ratioP1;P2;durP2;ratioP2
5898;SDS011;2975;50.956;6.962;2023-04-23T00:01:55;19.33;;;12.67;;
5898;SDS011;2975;50.956;6.962;2023-04-23T00:04:23;16.83;;;12.20;;
5898;SDS011;2975;50.956;6.962;2023-04-23T00:06:50;16.20;;;12.20;;
5898;SDS011;2975;50.956;6.962;2023-04-23T00:09:16;16.57;;;12.17;;
5898;SDS011;2975;50.956;6.962;2023-04-23T00:11:43;18.67;;;11.70;;
5898;SDS011;2975;50.956;6.962;2023-04-23T00:14:10;17.20;;;12.30;;
5898;SDS011;2975;50.956;6.962;2023-04-23T00:16:36;16.97;;;12.53;;
5898;SDS011;2975;50.956;6.962;2023-04-23T00:19:03;19.03;;;13.37;;
5898;SDS011;2975;50.956;6.962;2023-04-23T00:21:29;19.47;;;12.90;;
5898;SDS011;2975;50.956;6.962;2023-04-23T00:23:55;20.53;;;13.33;;
5898;SDS011;2975;50.956;6.962;2023-04-23T00:26:21;20.57;;;13.53;;
5898;SDS011;2975;50.956;6.962;2023-04-23T00:28:46;20.93;;;14.27;;
5898;SDS011;2975;50.956;6.962;2023-04-23T00:31:12;19.20;;;13.60;;
5898;SDS011;2975;50.956;6.962;2023-04-23T00:33:37;19.23;;;13.37;;
5898;SDS011;2975;50.956;6.962;2023-04-23T00:36:03;19.63;;;13.33;;
5898;SDS011;2975;50.956;6.962;2023-04-23T00:38:29;16.77;;;12.80;;
5898;SDS011;2975;50.956;6.962;2023-04-23T00:40:54;20.40;;;13.47;;
5898;SDS011;2975;50.956;6.962;2023-04-23T00:43:20;17.43;;;12.80;;
5898;SDS011;2975;50.956;6.962;2023-04-23T00:45:46;19.80;;;14.57;;
5898;SDS011;2975;50.956;6.962;2023-04-23T00:48:13;20.10;;;13.50;;
5898;SDS011;2975;50.956;6.962;2023-04-23T00:50:39;18.00;;;13.30;;
5898;SDS011;2975;50.956;6.962;2023-04-23T00:53:06;22.47;;;13.67;;
5898;SDS011;2975;50.956;6.962;2023-04-23T00:55:32;20.33;;;14.03;;
5898;SDS011;2975;50.956;6.962;2023-04-23T00:57:58;18.23;;;14.17;;
5898;SDS011;2975;50.956;6.962;2023-04-23T01:00:24;20.87;;;14.87;;
5898;SDS011;2975;50.956;6.962;2023-04-23T01:02:51;19.43;;;13.93;;
5898;SDS011;2975;50.956;6.962;2023-04-23T01:05:17;23.23;;;14.20;;
5898;SDS011;2975;50.956;6.962;2023-04-23T01:07:46;21.60;;;14.37;;
5898;SDS011;2975;50.956;6.962;2023-04-23T01:10:12;18.73;;;13.57;;
5898;SDS011;2975;50.956;6.962;2023-04-23T01:12:38;17.40;;;13.40;;
5898;SDS011;2975;50.956;6.962;2023-04-23T01:15:04;18.37;;;14.07;;
5898;SDS011;2975;50.956;6.962;2023-04-23T01:17:30;22.07;;;14.40;;
5898;SDS011;2975;50.956;6.962;2023-04-23T01:19:56;20.73;;;13.77;;
5898;SDS011;2975;50.956;6.962;2023-04-23T01:22:22;20.13;;;13.63;;
5898;SDS011;2975;50.956;6.962;2023-04-23T01:24:48;18.00;;;12.87;;
5898;SDS011;2975;50.956;6.962;2023-04-23T01:27:14;19.77;;;13.50;;
5898;SDS011;2975;50.956;6.962;2023-04-23T01:29:40;19.93;;;12.97;;
5898;SDS011;2975;50.956;6.962;2023-04-23T01:32:07;19.43;;;13.43;;
5898;SDS011;2975;50.956;6.962;2023-04-23T01:34:33;17.77;;;12.67;;
5898;SDS011;2975;50.956;6.962;2023-04-23T01:36:59;22.00;;;13.17;;
5898;SDS011;2975;50.956;6.962;2023-04-23T01:39:27;17.83;;;12.70;;
5898;SDS011;2975;50.956;6.962;2023-04-23T01:41:53;19.27;;;13.40;;
5898;SDS011;2975;50.956;6.962;2023-04-23T01:44:18;19.33;;;12.77;;
5898;SDS011;2975;50.956;6.962;2023-04-23T01:46:44;19.63;;;13.37;;
5898;SDS011;2975;50.956;6.962;2023-04-23T01:49:10;23.40;;;13.93;;
5898;SDS011;2975;50.956;6.962;2023-04-23T01:51:36;18.73;;;12.57;;
5898;SDS011;2975;50.956;6.962;2023-04-23T01:54:02;18.07;;;12.77;;
5898;SDS011;2975;50.956;6.962;2023-04-23T01:56:28;17.10;;;13.03;;
5898;SDS011;2975;50.956;6.962;2023-04-23T01:58:54;17.47;;;12.50;;
5898;SDS011;2975;50.956;6.962;2023-04-23T02:01:20;18.00;;;12.77;;
5898;SDS011;2975;50.956;6.962;2023-04-23T02:03:46;18.03;;;12.83;;
5898;SDS011;2975;50.956;6.962;2023-04-23T02:06:14;17.80;;;12.73;;
5898;SDS011;2975;50.956;6.962;2023-04-23T02:08:40;18.00;;;13.53;;
5898;SDS011;2975;50.956;6.962;2023-04-23T02:11:06;18.73;;;13.70;;
5898;SDS011;2975;50.956;6.962;2023-04-23T02:13:32;18.40;;;13.37;;
5898;SDS011;2975;50.956;6.962;2023-04-23T02:15:57;17.67;;;13.20;;
5898;SDS011;2975;50.956;6.962;2023-04-23T02:18:23;17.87;;;13.27;;
5898;SDS011;2975;50.956;6.962;2023-04-23T02:20:48;18.10;;;13.20;;
5898;SDS011;2975;50.956;6.962;2023-04-23T02:23:14;18.97;;;13.20;;
5898;SDS011;2975;50.956;6.962;2023-04-23T02:25:40;18.90;;;13.87;;
5898;SDS011;2975;50.956;6.962;2023-04-23T02:28:06;20.27;;;13.80;;
5898;SDS011;2975;50.956;6.962;2023-04-23T02:30:32;19.37;;;14.10;;
5898;SDS011;2975;50.956;6.962;2023-04-23T02:32:59;18.67;;;13.63;;
5898;SDS011;2975;50.956;6.962;2023-04-23T02:35:24;20.37;;;14.37;;
5898;SDS011;2975;50.956;6.962;2023-04-23T02:37:50;20.63;;;14.40;;
5898;SDS011;2975;50.956;6.962;2023-04-23T02:40:18;18.30;;;14.03;;
5898;SDS011;2975;50.956;6.962;2023-04-23T02:42:43;19.13;;;14.20;;
5898;SDS011;2975;50.956;6.962;2023-04-23T02:45:09;20.37;;;15.17;;
5898;SDS011;2975;50.956;6.962;2023-04-23T02:47:35;21.33;;;15.17;;
5898;SDS011;2975;50.956;6.962;2023-04-23T02:50:01;22.53;;;15.17;;
5898;SDS011;2975;50.956;6.962;2023-04-23T02:52:29;20.93;;;14.97;;
5898;SDS011;2975;50.956;6.962;2023-04-23T02:54:55;21.00;;;15.37;;
5898;SDS011;2975;50.956;6.962;2023-04-23T02:57:21;23.73;;;15.57;;
5898;SDS011;2975;50.956;6.962;2023-04-23T02:59:47;24.53;;;17.13;;
5898;SDS011;2975;50.956;6.962;2023-04-23T03:02:14;21.57;;;15.00;;
5898;SDS011;2975;50.956;6.962;2023-04-23T03:04:40;26.17;;;17.63;;
5898;SDS011;2975;50.956;6.962;2023-04-23T03:07:06;24.40;;;16.83;;
5898;SDS011;2975;50.956;6.962;2023-04-23T03:09:31;23.73;;;15.97;;
5898;SDS011;2975;50.956;6.962;2023-04-23T03:11:57;25.83;;;17.27;;
5898;SDS011;2975;50.956;6.962;2023-04-23T03:14:23;25.87;;;17.77;;
5898;SDS011;2975;50.956;6.962;2023-04-23T03:16:49;29.20;;;17.73;;
5898;SDS011;2975;50.956;6.962;2023-04-23T03:19:15;23.57;;;16.97;;
5898;SDS011;2975;50.956;6.962;2023-04-23T03:21:40;26.90;;;17.00;;
5898;SDS011;2975;50.956;6.962;2023-04-23T03:24:06;24.80;;;17.07;;
5898;SDS011;2975;50.956;6.962;2023-04-23T03:26:31;25.67;;;18.23;;
5898;SDS011;2975;50.956;6.962;2023-04-23T03:28:58;24.10;;;17.20;;
5898;SDS011;2975;50.956;6.962;2023-04-23T03:31:24;25.73;;;18.23;;
5898;SDS011;2975;50.956;6.962;2023-04-23T03:33:49;25.20;;;18.60;;
5898;SDS011;2975;50.956;6.962;2023-04-23T03:36:15;26.83;;;17.30;;
5898;SDS011;2975;50.956;6.962;2023-04-23T03:38:41;24.90;;;16.97;;
5898;SDS011;2975;50.956;6.962;2023-04-23T03:41:06;23.90;;;17.20;;
5898;SDS011;2975;50.956;6.962;2023-04-23T03:43:32;27.53;;;17.90;;
5898;SDS011;2975;50.956;6.962;2023-04-23T03:45:57;27.60;;;18.40;;
5898;SDS011;2975;50.956;6.962;2023-04-23T03:48:23;26.40;;;18.57;;
5898;SDS011;2975;50.956;6.962;2023-04-23T03:50:49;25.33;;;18.13;;
5898;SDS011;2975;50.956;6.962;2023-04-23T03:53:14;28.20;;;19.90;;
5898;SDS011;2975;50.956;6.962;2023-04-23T03:55:41;30.60;;;19.33;;
5898;SDS011;2975;50.956;6.962;2023-04-23T03:58:07;29.77;;;18.87;;
5898;SDS011;2975;50.956;6.962;2023-04-23T04:00:33;26.23;;;18.90;;
5898;SDS011;2975;50.956;6.962;2023-04-23T04:02:58;25.43;;;17.97;;
5898;SDS011;2975;50.956;6.962;2023-04-23T04:05:25;28.90;;;19.33;;
5898;SDS011;2975;50.956;6.962;2023-04-23T04:07:51;28.63;;;18.93;;
5898;SDS011;2975;50.956;6.962;2023-04-23T04:10:18;29.37;;;19.87;;
5898;SDS011;2975;50.956;6.962;2023-04-23T04:12:44;28.70;;;18.97;;
5898;SDS011;2975;50.956;6.962;2023-04-23T04:15:11;27.50;;;18.87;;
5898;SDS011;2975;50.956;6.962;2023-04-23T04:17:37;29.17;;;20.03;;
5898;SDS011;2975;50.956;6.962;2023-04-23T04:20:03;26.70;;;18.60;;
5898;SDS011;2975;50.956;6.962;2023-04-23T04:22:32;28.47;;;18.93;;
5898;SDS011;2975;50.956;6.962;2023-04-23T04:24:58;26.20;;;17.43;;
5898;SDS011;2975;50.956;6.962;2023-04-23T04:27:23;26.30;;;17.23;;
5898;SDS011;2975;50.956;6.962;2023-04-23T04:29:49;26.97;;;17.93;;
5898;SDS011;2975;50.956;6.962;2023-04-23T04:32:15;25.77;;;17.60;;
5898;SDS011;2975;50.956;6.962;2023-04-23T04:34:41;25.43;;;16.60;;
5898;SDS011;2975;50.956;6.962;2023-04-23T04:37:07;26.33;;;17.23;;
5898;SDS011;2975;50.956;6.962;2023-04-23T04:39:33;25.73;;;16.90;;
5898;SDS011;2975;50.956;6.962;2023-04-23T04:41:59;24.83;;;16.53;;
5898;SDS011;2975;50.956;6.962;2023-04-23T04:44:26;23.63;;;15.90;;
5898;SDS011;2975;50.956;6.962;2023-04-23T04:46:52;24.73;;;16.13;;
5898;SDS011;2975;50.956;6.962;2023-04-23T04:49:18;22.20;;;15.13;;
5898;SDS011;2975;50.956;6.962;2023-04-23T04:51:44;21.30;;;14.30;;
5898;SDS011;2975;50.956;6.962;2023-04-23T04:54:10;20.17;;;14.33;;
5898;SDS011;2975;50.956;6.962;2023-04-23T04:56:35;20.30;;;14.30;;
5898;SDS011;2975;50.956;6.962;2023-04-23T04:59:01;20.87;;;15.00;;
5898;SDS011;2975;50.956;6.962;2023-04-23T05:01:27;19.47;;;14.30;;
5898;SDS011;2975;50.956;6.962;2023-04-23T05:03:54;19.83;;;13.90;;
5898;SDS011;2975;50.956;6.962;2023-04-23T05:06:20;17.87;;;13.70;;
5898;SDS011;2975;50.956;6.962;2023-04-23T05:08:46;19.03;;;13.00;;
5898;SDS011;2975;50.956;6.962;2023-04-23T05:11:15;20.83;;;13.87;;
5898;SDS011;2975;50.956;6.962;2023-04-23T05:13:41;19.07;;;13.70;;
5898;SDS011;2975;50.956;6.962;2023-04-23T05:16:07;18.70;;;13.17;;
5898;SDS011;2975;50.956;6.962;2023-04-23T05:18:33;18.17;;;13.03;;
5898;SDS011;2975;50.956;6.962;2023-04-23T05:20:59;20.60;;;12.70;;
5898;SDS011;2975;50.956;6.962;2023-04-23T05:23:25;17.47;;;12.47;;
5898;SDS011;2975;50.956;6.962;2023-04-23T05:25:50;15.10;;;11.23;;
5898;SDS011;2975;50.956;6.962;2023-04-23T05:28:19;14.90;;;11.40;;
5898;SDS011;2975;50.956;6.962;2023-04-23T05:30:45;17.43;;;11.67;;
5898;SDS011;2975;50.956;6.962;2023-04-23T05:33:11;15.20;;;11.20;;
5898;SDS011;2975;50.956;6.962;2023-04-23T05:35:36;15.43;;;10.70;;
5898;SDS011;2975;50.956;6.962;2023-04-23T05:38:02;14.77;;;11.23;;
5898;SDS011;2975;50.956;6.962;2023-04-23T05:40:29;16.07;;;11.20;;
5898;SDS011;2975;50.956;6.962;2023-04-23T05:42:56;13.37;;;10.30;;
5898;SDS011;2975;50.956;6.962;2023-04-23T05:45:23;13.13;;;10.53;;
5898;SDS011;2975;50.956;6.962;2023-04-23T05:47:48;14.27;;;10.50;;
5898;SDS011;2975;50.956;6.962;2023-04-23T05:50:15;12.40;;;9.43;;
5898;SDS011;2975;50.956;6.962;2023-04-23T05:52:41;13.30;;;10.17;;
5898;SDS011;2975;50.956;6.962;2023-04-23T05:55:07;12.97;;;9.37;;
5898;SDS011;2975;50.956;6.962;2023-04-23T05:57:33;13.77;;;10.10;;
5898;SDS011;2975;50.956;6.962;2023-04-23T06:00:00;13.27;;;10.30;;
5898;SDS011;2975;50.956;6.962;2023-04-23T06:02:26;11.57;;;9.37;;
5898;SDS011;2975;50.956;6.962;2023-04-23T06:04:53;13.23;;;9.40;;
5898;SDS011;2975;50.956;6.962;2023-04-23T06:07:18;10.93;;;9.00;;
5898;SDS011;2975;50.956;6.962;2023-04-23T06:09:44;13.00;;;8.90;;
5898;SDS011;2975;50.956;6.962;2023-04-23T06:12:10;12.60;;;8.50;;
5898;SDS011;2975;50.956;6.962;2023-04-23T06:14:35;10.20;;;8.70;;
5898;SDS011;2975;50.956;6.962;2023-04-23T06:17:01;12.77;;;9.70;;
5898;SDS011;2975;50.956;6.962;2023-04-23T06:19:26;13.93;;;9.00;;
5898;SDS011;2975;50.956;6.962;2023-04-23T06:21:52;10.90;;;8.77;;
5898;SDS011;2975;50.956;6.962;2023-04-23T06:24:18;12.23;;;8.13;;
5898;SDS011;2975;50.956;6.962;2023-04-23T06:26:44;11.23;;;8.07;;
5898;SDS011;2975;50.956;6.962;2023-04-23T06:29:10;13.40;;;8.50;;
5898;SDS011;2975;50.956;6.962;2023-04-23T06:31:35;10.83;;;8.53;;
5898;SDS011;2975;50.956;6.962;2023-04-23T06:34:01;14.03;;;8.23;;
5898;SDS011;2975;50.956;6.962;2023-04-23T06:36:27;9.97;;;7.73;;
5898;SDS011;2975;50.956;6.962;2023-04-23T06:38:52;10.23;;;7.37;;
5898;SDS011;2975;50.956;6.962;2023-04-23T06:41:18;11.03;;;7.77;;
5898;SDS011;2975;50.956;6.962;2023-04-23T06:43:44;9.47;;;7.63;;
5898;SDS011;2975;50.956;6.962;2023-04-23T06:46:12;11.33;;;8.03;;
5898;SDS011;2975;50.956;6.962;2023-04-23T06:48:38;8.77;;;7.03;;
5898;SDS011;2975;50.956;6.962;2023-04-23T06:51:04;10.83;;;7.70;;
5898;SDS011;2975;50.956;6.962;2023-04-23T06:53:30;9.90;;;6.97;;
5898;SDS011;2975;50.956;6.962;2023-04-23T06:55:56;7.73;;;6.47;;
5898;SDS011;2975;50.956;6.962;2023-04-23T06:58:21;8.43;;;6.83;;
5898;SDS011;2975;50.956;6.962;2023-04-23T07:00:51;6.57;;;5.87;;
5898;SDS011;2975;50.956;6.962;2023-04-23T07:03:17;9.00;;;6.57;;
5898;SDS011;2975;50.956;6.962;2023-04-23T07:05:43;10.13;;;6.33;;
5898;SDS011;2975;50.956;6.962;2023-04-23T07:08:09;10.60;;;6.07;;
5898;SDS011;2975;50.956;6.962;2023-04-23T07:10:34;8.47;;;6.00;;
5898;SDS011;2975;50.956;6.962;2023-04-23T07:13:00;5.93;;;5.13;;
5898;SDS011;2975;50.956;6.962;2023-04-23T07:15:25;5.83;;;5.10;;
5898;SDS011;2975;50.956;6.962;2023-04-23T07:17:51;5.10;;;4.60;;
5898;SDS011;2975;50.956;6.962;2023-04-23T07:20:17;4.90;;;4.40;;
5898;SDS011;2975;50.956;6.962;2023-04-23T07:22:44;6.30;;;5.40;;
5898;SDS011;2975;50.956;6.962;2023-04-23T07:25:10;6.37;;;4.33;;
5898;SDS011;2975;50.956;6.962;2023-04-23T07:27:36;5.23;;;3.90;;
5898;SDS011;2975;50.956;6.962;2023-04-23T07:30:02;4.93;;;3.87;;
5898;SDS011;2975;50.956;6.962;2023-04-23T07:32:29;4.50;;;3.83;;
5898;SDS011;2975;50.956;6.962;2023-04-23T07:34:54;4.93;;;3.53;;
5898;SDS011;2975;50.956;6.962;2023-04-23T07:37:20;5.60;;;3.57;;
5898;SDS011;2975;50.956;6.962;2023-04-23T07:39:46;8.23;;;3.63;;
5898;SDS011;2975;50.956;6.962;2023-04-23T07:42:12;4.40;;;3.27;;
5898;SDS011;2975;50.956;6.962;2023-04-23T07:44:37;4.23;;;3.13;;
5898;SDS011;2975;50.956;6.962;2023-04-23T07:47:03;4.40;;;2.80;;
5898;SDS011;2975;50.956;6.962;2023-04-23T07:49:29;4.30;;;2.83;;
5898;SDS011;2975;50.956;6.962;2023-04-23T07:51:55;6.43;;;3.00;;
5898;SDS011;2975;50.956;6.962;2023-04-23T07:54:20;3.17;;;2.83;;
5898;SDS011;2975;50.956;6.962;2023-04-23T07:56:46;5.37;;;2.80;;
5898;SDS011;2975;50.956;6.962;2023-04-23T07:59:12;4.93;;;2.90;;
5898;SDS011;2975;50.956;6.962;2023-04-23T08:01:37;4.43;;;3.00;;
5898;SDS011;2975;50.956;6.962;2023-04-23T08:04:03;3.30;;;2.77;;
5898;SDS011;2975;50.956;6.962;2023-04-23T08:06:29;4.03;;;2.70;;
5898;SDS011;2975;50.956;6.962;2023-04-23T08:08:55;3.47;;;2.40;;
5898;SDS011;2975;50.956;6.962;2023-04-23T08:11:21;3.37;;;2.43;;
5898;SDS011;2975;50.956;6.962;2023-04-23T08:13:47;2.87;;;2.60;;
5898;SDS011;2975;50.956;6.962;2023-04-23T08:16:13;4.00;;;2.40;;
5898;SDS011;2975;50.956;6.962;2023-04-23T08:18:38;2.53;;;2.00;;
5898;SDS011;2975;50.956;6.962;2023-04-23T08:21:04;3.37;;;2.00;;
5898;SDS011;2975;50.956;6.962;2023-04-23T08:23:30;3.63;;;2.40;;
5898;SDS011;2975;50.956;6.962;2023-04-23T08:25:55;6.13;;;2.33;;
5898;SDS011;2975;50.956;6.962;2023-04-23T08:28:21;3.03;;;1.97;;
5898;SDS011;2975;50.956;6.962;2023-04-23T08:30:47;3.83;;;1.90;;
5898;SDS011;2975;50.956;6.962;2023-04-23T08:33:12;3.30;;;2.30;;
5898;SDS011;2975;50.956;6.962;2023-04-23T08:35:38;3.37;;;2.10;;
5898;SDS011;2975;50.956;6.962;2023-04-23T08:38:04;7.50;;;2.63;;
5898;SDS011;2975;50.956;6.962;2023-04-23T08:40:30;3.50;;;2.20;;
5898;SDS011;2975;50.956;6.962;2023-04-23T08:42:57;3.10;;;2.00;;
5898;SDS011;2975;50.956;6.962;2023-04-23T08:45:26;4.10;;;2.20;;
5898;SDS011;2975;50.956;6.962;2023-04-23T08:47:52;3.13;;;2.77;;
5898;SDS011;2975;50.956;6.962;2023-04-23T08:50:23;4.53;;;2.40;;
5898;SDS011;2975;50.956;6.962;2023-04-23T08:52:53;2.93;;;2.07;;
5898;SDS011;2975;50.956;6.962;2023-04-23T08:55:20;3.27;;;1.80;;
5898;SDS011;2975;50.956;6.962;2023-04-23T08:57:47;3.33;;;2.10;;
5898;SDS011;2975;50.956;6.962;2023-04-23T09:00:14;4.10;;;2.57;;
5898;SDS011;2975;50.956;6.962;2023-04-23T09:02:42;3.00;;;2.20;;
5898;SDS011;2975;50.956;6.962;2023-04-23T09:05:08;5.97;;;2.27;;
5898;SDS011;2975;50.956;6.962;2023-04-23T09:07:34;2.13;;;2.00;;
5898;SDS011;2975;50.956;6.962;2023-04-23T09:10:01;2.13;;;1.90;;
5898;SDS011;2975;50.956;6.962;2023-04-23T09:12:27;4.37;;;2.00;;
5898;SDS011;2975;50.956;6.962;2023-04-23T09:14:54;4.33;;;2.20;;
5898;SDS011;2975;50.956;6.962;2023-04-23T09:17:20;3.47;;;2.10;;
5898;SDS011;2975;50.956;6.962;2023-04-23T09:19:47;2.30;;;1.93;;
5898;SDS011;2975;50.956;6.962;2023-04-23T09:22:15;3.83;;;1.80;;
5898;SDS011;2975;50.956;6.962;2023-04-23T09:25:01;4.53;;;1.97;;
5898;SDS011;2975;50.956;6.962;2023-04-23T09:27:29;3.27;;;2.27;;
5898;SDS011;2975;50.956;6.962;2023-04-23T09:29:55;3.80;;;1.67;;
5898;SDS011;2975;50.956;6.962;2023-04-23T09:32:21;3.63;;;1.90;;
5898;SDS011;2975;50.956;6.962;2023-04-23T09:34:55;3.33;;;1.57;;
5898;SDS011;2975;50.956;6.962;2023-04-23T09:37:24;2.37;;;1.90;;
5898;SDS011;2975;50.956;6.962;2023-04-23T09:39:49;5.93;;;1.97;;
5898;SDS011;2975;50.956;6.962;2023-04-23T09:42:20;1.73;;;1.60;;
5898;SDS011;2975;50.956;6.962;2023-04-23T09:45:01;2.93;;;1.73;;
5898;SDS011;2975;50.956;6.962;2023-04-23T09:47:30;1.93;;;1.30;;
5898;SDS011;2975;50.956;6.962;2023-04-23T09:50:02;4.30;;;1.47;;
5898;SDS011;2975;50.956;6.962;2023-04-23T09:52:32;5.60;;;1.63;;
5898;SDS011;2975;50.956;6.962;2023-04-23T09:55:00;4.53;;;1.60;;
5898;SDS011;2975;50.956;6.962;2023-04-23T09:57:34;1.73;;;1.20;;
5898;SDS011;2975;50.956;6.962;2023-04-23T10:00:11;2.97;;;1.50;;
5898;SDS011;2975;50.956;6.962;2023-04-23T10:02:37;2.60;;;1.30;;
5898;SDS011;2975;50.956;6.962;2023-04-23T10:05:12;3.70;;;1.60;;
5898;SDS011;2975;50.956;6.962;2023-04-23T10:07:46;2.23;;;1.30;;
5898;SDS011;2975;50.956;6.962;2023-04-23T10:10:16;2.93;;;1.23;;
5898;SDS011;2975;50.956;6.962;2023-04-23T10:12:42;1.70;;;1.10;;
5898;SDS011;2975;50.956;6.962;2023-04-23T10:15:09;1.02;;;0.93;;
5898;SDS011;2975;50.956;6.962;2023-04-23T10:17:35;2.35;;;1.30;;
5898;SDS011;2975;50.956;6.962;2023-04-23T10:20:02;2.77;;;1.10;;
5898;SDS011;2975;50.956;6.962;2023-04-23T10:22:30;4.03;;;1.40;;
5898;SDS011;2975;50.956;6.962;2023-04-23T10:24:59;2.53;;;1.33;;
5898;SDS011;2975;50.956;6.962;2023-04-23T10:27:28;2.17;;;1.30;;
5898;SDS011;2975;50.956;6.962;2023-04-23T10:29:56;1.13;;;1.00;;
5898;SDS011;2975;50.956;6.962;2023-04-23T10:32:22;1.98;;;1.30;;
5898;SDS011;2975;50.956;6.962;2023-04-23T10:34:48;2.17;;;1.20;;
5898;SDS011;2975;50.956;6.962;2023-04-23T10:37:14;2.50;;;1.40;;
5898;SDS011;2975;50.956;6.962;2023-04-23T10:39:43;3.40;;;1.20;;
5898;SDS011;2975;50.956;6.962;2023-04-23T10:42:11;1.23;;;0.95;;
5898;SDS011;2975;50.956;6.962;2023-04-23T10:44:38;3.70;;;1.10;;
5898;SDS011;2975;50.956;6.962;2023-04-23T10:47:10;1.02;;;0.98;;
5898;SDS011;2975;50.956;6.962;2023-04-23T10:49:38;2.35;;;1.02;;
5898;SDS011;2975;50.956;6.962;2023-04-23T10:52:14;2.55;;;0.95;;
5898;SDS011;2975;50.956;6.962;2023-04-23T10:54:41;2.30;;;1.00;;
5898;SDS011;2975;50.956;6.962;2023-04-23T10:57:08;2.13;;;1.17;;
5898;SDS011;2975;50.956;6.962;2023-04-23T10:59:37;1.75;;;1.15;;
5898;SDS011;2975;50.956;6.962;2023-04-23T11:02:07;1.45;;;1.10;;
5898;SDS011;2975;50.956;6.962;2023-04-23T11:04:46;2.77;;;1.30;;
5898;SDS011;2975;50.956;6.962;2023-04-23T11:07:24;1.77;;;1.10;;
5898;SDS011;2975;50.956;6.962;2023-04-23T11:09:59;1.13;;;0.93;;
5898;SDS011;2975;50.956;6.962;2023-04-23T11:12:39;2.10;;;0.90;;
5898;SDS011;2975;50.956;6.962;2023-04-23T11:15:09;1.65;;;1.00;;
5898;SDS011;2975;50.956;6.962;2023-04-23T11:22:35;1.57;;;1.00;;
5898;SDS011;2975;50.956;6.962;2023-04-23T11:25:02;2.97;;;1.10;;
5898;SDS011;2975;50.956;6.962;2023-04-23T11:27:30;4.83;;;1.20;;
5898;SDS011;2975;50.956;6.962;2023-04-23T11:29:56;1.90;;;1.00;;
5898;SDS011;2975;50.956;6.962;2023-04-23T11:32:22;1.10;;;0.90;;
5898;SDS011;2975;50.956;6.962;2023-04-23T11:34:48;4.30;;;1.00;;
5898;SDS011;2975;50.956;6.962;2023-04-23T11:37:15;1.20;;;1.00;;
5898;SDS011;2975;50.956;6.962;2023-04-23T11:39:42;2.07;;;1.23;;
5898;SDS011;2975;50.956;6.962;2023-04-23T11:42:12;5.00;;;1.30;;
5898;SDS011;2975;50.956;6.962;2023-04-23T11:44:39;3.63;;;1.90;;
5898;SDS011;2975;50.956;6.962;2023-04-23T11:47:06;2.73;;;1.47;;
5898;SDS011;2975;50.956;6.962;2023-04-23T11:49:35;2.60;;;1.20;;
5898;SDS011;2975;50.956;6.962;2023-04-23T11:52:04;2.42;;;1.02;;
5898;SDS011;2975;50.956;6.962;2023-04-23T11:54:30;2.72;;;1.25;;
5898;SDS011;2975;50.956;6.962;2023-04-23T11:56:57;1.02;;;0.90;;
5898;SDS011;2975;50.956;6.962;2023-04-23T11:59:23;1.63;;;1.00;;
5898;SDS011;2975;50.956;6.962;2023-04-23T12:01:53;2.77;;;1.10;;
5898;SDS011;2975;50.956;6.962;2023-04-23T12:04:24;1.48;;;1.00;;
5898;SDS011;2975;50.956;6.962;2023-04-23T12:06:55;5.57;;;1.20;;
5898;SDS011;2975;50.956;6.962;2023-04-23T12:09:22;2.22;;;1.30;;
5898;SDS011;2975;50.956;6.962;2023-04-23T12:11:52;1.48;;;1.23;;
5898;SDS011;2975;50.956;6.962;2023-04-23T12:14:19;3.33;;;1.50;;
5898;SDS011;2975;50.956;6.962;2023-04-23T12:16:50;1.97;;;1.00;;
5898;SDS011;2975;50.956;6.962;2023-04-23T12:19:17;2.45;;;0.93;;
5898;SDS011;2975;50.956;6.962;2023-04-23T12:21:54;4.32;;;1.35;;
5898;SDS011;2975;50.956;6.962;2023-04-23T12:24:25;1.70;;;1.13;;
5898;SDS011;2975;50.956;6.962;2023-04-23T12:26:52;0.93;;;0.85;;
5898;SDS011;2975;50.956;6.962;2023-04-23T12:29:20;2.53;;;1.13;;
5898;SDS011;2975;50.956;6.962;2023-04-23T12:31:47;2.42;;;1.35;;
5898;SDS011;2975;50.956;6.962;2023-04-23T12:34:14;2.13;;;0.90;;
5898;SDS011;2975;50.956;6.962;2023-04-23T12:36:44;2.50;;;1.03;;
5898;SDS011;2975;50.956;6.962;2023-04-23T12:39:22;3.13;;;0.90;;
5898;SDS011;2975;50.956;6.962;2023-04-23T12:41:50;2.40;;;0.82;;
5898;SDS011;2975;50.956;6.962;2023-04-23T12:44:35;0.90;;;0.90;;
5898;SDS011;2975;50.956;6.962;2023-04-23T12:49:32;3.70;;;1.40;;
5898;SDS011;2975;50.956;6.962;2023-04-23T12:51:59;1.97;;;0.80;;
5898;SDS011;2975;50.956;6.962;2023-04-23T12:54:29;2.37;;;1.10;;
5898;SDS011;2975;50.956;6.962;2023-04-23T12:56:56;1.83;;;1.00;;
5898;SDS011;2975;50.956;6.962;2023-04-23T12:59:28;5.43;;;1.30;;
5898;SDS011;2975;50.956;6.962;2023-04-23T13:01:54;2.63;;;1.17;;
5898;SDS011;2975;50.956;6.962;2023-04-23T13:04:20;3.40;;;1.17;;
5898;SDS011;2975;50.956;6.962;2023-04-23T13:06:45;3.50;;;0.80;;
5898;SDS011;2975;50.956;6.962;2023-04-23T13:09:11;1.40;;;1.10;;
5898;SDS011;2975;50.956;6.962;2023-04-23T13:11:37;2.67;;;1.37;;
5898;SDS011;2975;50.956;6.962;2023-04-23T13:14:04;2.23;;;1.10;;
5898;SDS011;2975;50.956;6.962;2023-04-23T13:16:30;2.13;;;1.20;;
5898;SDS011;2975;50.956;6.962;2023-04-23T13:18:58;2.80;;;1.00;;
5898;SDS011;2975;50.956;6.962;2023-04-23T13:21:24;3.53;;;1.07;;
5898;SDS011;2975;50.956;6.962;2023-04-23T13:23:49;1.73;;;1.13;;
5898;SDS011;2975;50.956;6.962;2023-04-23T13:26:15;1.33;;;1.10;;
5898;SDS011;2975;50.956;6.962;2023-04-23T13:28:41;2.10;;;1.00;;
5898;SDS011;2975;50.956;6.962;2023-04-23T13:31:07;1.17;;;1.00;;
5898;SDS011;2975;50.956;6.962;2023-04-23T13:33:32;3.80;;;1.00;;
5898;SDS011;2975;50.956;6.962;2023-04-23T13:35:59;1.97;;;0.90;;
5898;SDS011;2975;50.956;6.962;2023-04-23T13:38:25;1.80;;;0.90;;
5898;SDS011;2975;50.956;6.962;2023-04-23T13:40:51;1.47;;;1.23;;
5898;SDS011;2975;50.956;6.962;2023-04-23T13:43:18;4.90;;;1.60;;
5898;SDS011;2975;50.956;6.962;2023-04-23T13:45:44;3.20;;;1.20;;
5898;SDS011;2975;50.956;6.962;2023-04-23T13:48:11;1.80;;;0.80;;
5898;SDS011;2975;50.956;6.962;2023-04-23T13:50:37;2.40;;;0.90;;
5898;SDS011;2975;50.956;6.962;2023-04-23T13:53:03;2.17;;;1.10;;
5898;SDS011;2975;50.956;6.962;2023-04-23T13:55:29;3.22;;;1.35;;
5898;SDS011;2975;50.956;6.962;2023-04-23T13:57:54;1.42;;;1.00;;
5898;SDS011;2975;50.956;6.962;2023-04-23T14:00:22;1.17;;;0.87;;
5898;SDS011;2975;50.956;6.962;2023-04-23T14:02:48;3.77;;;2.70;;
5898;SDS011;2975;50.956;6.962;2023-04-23T14:05:14;1.00;;;0.90;;
5898;SDS011;2975;50.956;6.962;2023-04-23T14:07:40;2.30;;;1.03;;
5898;SDS011;2975;50.956;6.962;2023-04-23T14:10:06;2.23;;;1.10;;
5898;SDS011;2975;50.956;6.962;2023-04-23T14:12:31;0.80;;;0.80;;
5898;SDS011;2975;50.956;6.962;2023-04-23T14:14:57;3.13;;;1.17;;
5898;SDS011;2975;50.956;6.962;2023-04-23T14:17:23;3.97;;;1.30;;
5898;SDS011;2975;50.956;6.962;2023-04-23T14:19:49;2.17;;;0.87;;
5898;SDS011;2975;50.956;6.962;2023-04-23T14:22:14;1.53;;;0.90;;
5898;SDS011;2975;50.956;6.962;2023-04-23T14:24:44;3.53;;;1.10;;
5898;SDS011;2975;50.956;6.962;2023-04-23T14:27:10;1.10;;;0.97;;
5898;SDS011;2975;50.956;6.962;2023-04-23T14:29:40;1.97;;;1.00;;
5898;SDS011;2975;50.956;6.962;2023-04-23T14:32:06;1.90;;;1.00;;
5898;SDS011;2975;50.956;6.962;2023-04-23T14:34:31;3.37;;;1.30;;
5898;SDS011;2975;50.956;6.962;2023-04-23T14:37:00;2.70;;;0.90;;
5898;SDS011;2975;50.956;6.962;2023-04-23T14:39:27;2.00;;;1.00;;
5898;SDS011;2975;50.956;6.962;2023-04-23T14:41:53;2.30;;;1.10;;
5898;SDS011;2975;50.956;6.962;2023-04-23T14:44:19;3.33;;;1.00;;
5898;SDS011;2975;50.956;6.962;2023-04-23T14:46:47;2.90;;;1.10;;
5898;SDS011;2975;50.956;6.962;2023-04-23T14:49:15;1.13;;;1.10;;
5898;SDS011;2975;50.956;6.962;2023-04-23T14:51:42;5.40;;;1.30;;
5898;SDS011;2975;50.956;6.962;2023-04-23T14:54:09;2.20;;;1.30;;
5898;SDS011;2975;50.956;6.962;2023-04-23T14:56:35;1.17;;;1.07;;
5898;SDS011;2975;50.956;6.962;2023-04-23T14:59:01;2.20;;;1.30;;
5898;SDS011;2975;50.956;6.962;2023-04-23T15:01:28;2.97;;;1.33;;
5898;SDS011;2975;50.956;6.962;2023-04-23T15:03:54;5.23;;;1.83;;
5898;SDS011;2975;50.956;6.962;2023-04-23T15:06:20;2.03;;;1.50;;
5898;SDS011;2975;50.956;6.962;2023-04-23T15:08:46;3.43;;;1.47;;